Time,TemperatureF,DewpointF,PressureIn,WindDirection,WindDirectionDegrees,WindSpeedMPH,WindSpeedGustMPH,Humidity,HourlyPrecipIn,Conditions,Clouds,dailyrainin,SoftwareType,DateUTC
2013-04-28 00:00:00,80.7,73.6,29.93,East,91,7.0,21.0,79,0.00,CLR,,0.00,WeatherDisplay:10.37,2013-04-28 06:00:00,
2013-04-28 00:15:00,80.6,74.2,29.93,ESE,106,5.0,15.0,81,0.00,CLR,,0.00,WeatherDisplay:10.37,2013-04-28 06:15:00,
2013-04-28 00:30:00,80.6,73.9,29.92,ESE,106,8.0,13.0,80,0.00,CLR,,0.00,WeatherDisplay:10.37,2013-04-28 06:30:00,
2013-04-28 00:45:00,80.5,74.1,29.92,East,99,6.0,14.0,81,0.00,CLR,,0.00,WeatherDisplay:10.37,2013-04-28 06:45:00,
2013-04-28 01:00:00,80.6,74.2,29.91,ESE,105,6.0,16.0,81,0.00,CLR,,0.00,WeatherDisplay:10.37,2013-04-28 07:00:00,
2013-04-28 01:15:00,80.5,74.1,29.91,ESE,108,13.0,15.0,81,0.00,CLR,,0.00,WeatherDisplay:10.37,2013-04-28 07:15:00,
2013-04-28 01:30:00,80.5,74.1,29.90,ESE,104,12.0,15.0,81,0.00,CLR,,0.00,WeatherDisplay:10.37,2013-04-28 07:30:00,
2013-04-28 01:45:00,80.4,73.7,29.90,ESE,113,9.0,16.0,80,0.00,CLR,,0.00,WeatherDisplay:10.37,2013-04-28 07:45:00,
2013-04-28 02:00:00,80.4,74.4,29.89,ESE,116,8.0,14.0,82,0.00,CLR,,0.00,WeatherDisplay:10.37,2013-04-28 08:00:00,
2013-04-28 02:15:00,80.4,74.4,29.89,ESE,115,7.0,14.0,82,0.00,CLR,,0.00,WeatherDisplay:10.37,2013-04-28 08:15:00,
2013-04-28 02:30:00,80.3,73.6,29.89,ESE,112,12.0,15.0,80,0.00,CLR,,0.00,WeatherDisplay:10.37,2013-04-28 08:30:00,
2013-04-28 02:45:00,80.3,73.9,29.88,ESE,115,13.0,15.0,81,0.00,CLR,,0.00,WeatherDisplay:10.37,2013-04-28 08:45:00,
2013-04-28 03:00:00,80.2,73.5,29.88,ESE,112,13.0,15.0,80,0.00,CLR,,0.00,WeatherDisplay:10.37,2013-04-28 09:00:00,
2013-04-28 03:15:00,80.2,74.2,29.88,ESE,118,12.0,14.0,82,0.00,CLR,,0.00,WeatherDisplay:10.37,2013-04-28 09:15:00,
2013-04-28 03:30:00,80.2,73.8,29.88,ESE,113,10.0,15.0,81,0.00,CLR,,0.00,WeatherDisplay:10.37,2013-04-28 09:30:00,
2013-04-28 03:45:00,80.3,74.3,29.88,ESE,110,12.0,15.0,82,0.00,CLR,,0.00,WeatherDisplay:10.37,2013-04-28 09:45:00,
2013-04-28 04:00:00,80.3,73.9,29.88,ESE,120,12.0,14.0,81,0.00,CLR,,0.00,WeatherDisplay:10.37,2013-04-28 10:00:00,
2013-04-28 04:15:00,80.2,73.8,29.88,ESE,111,10.0,14.0,81,0.00,CLR,,0.00,WeatherDisplay:10.37,2013-04-28 10:15:00,
2013-04-28 04:30:00,80.2,74.2,29.89,ESE,122,12.0,13.0,82,0.00,CLR,,0.00,WeatherDisplay:10.37,2013-04-28 10:30:00,
2013-04-28 04:45:00,80.3,73.6,29.89,ESE,123,9.0,13.0,80,0.00,CLR,,0.00,WeatherDisplay:10.37,2013-04-28 10:45:00,
2013-04-28 05:00:00,80.3,73.9,29.90,ESE,120,6.0,12.0,81,0.00,CLR,,0.00,WeatherDisplay:10.37,2013-04-28 11:00:00,
2013-04-28 05:15:00,80.2,73.1,29.90,SE,124,8.0,10.0,79,0.00,CLR,,0.00,WeatherDisplay:10.37,2013-04-28 11:15:00,
2013-04-28 05:30:00,80.2,73.5,29.90,ESE,121,7.0,10.0,80,0.00,CLR,,0.00,WeatherDisplay:10.37,2013-04-28 11:30:00,
2013-04-28 05:45:00,80.3,73.9,29.90,ESE,117,7.0,10.0,81,0.00,CLR,,0.00,WeatherDisplay:10.37,2013-04-28 11:45:00,
2013-04-28 06:00:00,80.7,73.2,29.91,ESE,123,9.0,13.0,78,0.00,CLR,,0.00,WeatherDisplay:10.37,2013-04-28 12:00:00,
2013-04-28 06:15:00,81.1,72.8,29.92,ESE,120,7.0,13.0,76,0.00,CLR,,0.00,WeatherDisplay:10.37,2013-04-28 12:15:00,
2013-04-28 06:30:00,81.4,72.7,29.92,ESE,118,8.0,12.0,75,0.00,CLR,,0.00,WeatherDisplay:10.37,2013-04-28 12:30:00,
2013-04-28 06:45:00,82.0,73.3,29.92,ESE,119,7.0,12.0,75,0.00,CLR,,0.00,WeatherDisplay:10.37,2013-04-28 12:45:00,
2013-04-28 07:00:00,81.3,74.2,29.92,ESE,120,6.0,10.0,79,0.00,CLR,,0.00,WeatherDisplay:10.37,2013-04-28 13:00:00,
2013-04-28 07:15:00,82.2,73.1,29.93,ESE,118,10.0,12.0,74,0.00,CLR,,0.00,WeatherDisplay:10.37,2013-04-28 13:15:00,
2013-04-28 07:30:00,82.7,73.1,29.94,ESE,114,9.0,12.0,73,0.00,CLR,,0.00,WeatherDisplay:10.37,2013-04-28 13:30:00,
2013-04-28 07:45:00,82.6,73.5,29.94,ESE,115,9.0,13.0,74,0.00,CLR,,0.00,WeatherDisplay:10.37,2013-04-28 13:45:00,
2013-04-28 08:00:00,82.5,74.1,29.94,ESE,115,8.0,13.0,76,0.00,CLR,,0.00,WeatherDisplay:10.37,2013-04-28 14:00:00,
2013-04-28 08:15:00,82.4,73.3,29.95,ESE,113,8.0,13.0,74,0.00,CLR,,0.00,WeatherDisplay:10.37,2013-04-28 14:15:00,
2013-04-28 08:30:00,83.2,73.6,29.95,ESE,113,9.0,13.0,73,0.00,CLR,,0.00,WeatherDisplay:10.37,2013-04-28 14:30:00,
2013-04-28 08:45:00,83.0,73.4,29.95,ESE,116,10.0,13.0,73,0.00,CLR,,0.00,WeatherDisplay:10.37,2013-04-28 14:45:00,
2013-04-28 09:00:00,83.3,73.3,29.95,ESE,111,8.0,13.0,72,0.00,CLR,,0.00,WeatherDisplay:10.37,2013-04-28 15:00:00,
2013-04-28 09:15:00,83.7,74.1,29.95,ESE,109,9.0,13.0,73,0.00,CLR,,0.00,WeatherDisplay:10.37,2013-04-28 15:15:00,
2013-04-28 09:30:00,83.6,73.6,29.94,ESE,115,9.0,13.0,72,0.00,CLR,,0.00,WeatherDisplay:10.37,2013-04-28 15:30:00,
2013-04-28 09:45:00,84.3,73.9,29.94,ESE,116,8.0,12.0,71,0.00,CLR,,0.00,WeatherDisplay:10.37,2013-04-28 15:45:00,
2013-04-28 10:00:00,83.9,73.9,29.94,ESE,114,8.0,13.0,72,0.00,CLR,,0.00,WeatherDisplay:10.37,2013-04-28 16:00:00,
2013-04-28 10:15:00,84.2,74.2,29.94,ESE,114,7.0,12.0,72,0.00,CLR,,0.00,WeatherDisplay:10.37,2013-04-28 16:15:00,
2013-04-28 10:30:00,84.3,74.7,29.94,ESE,116,7.0,12.0,73,0.00,CLR,,0.00,WeatherDisplay:10.37,2013-04-28 16:30:00,
2013-04-28 10:45:00,84.5,74.9,29.93,ESE,117,8.0,10.0,73,0.00,CLR,,0.00,WeatherDisplay:10.37,2013-04-28 16:45:00,
2013-04-28 11:00:00,84.3,74.7,29.93,ESE,115,7.0,12.0,73,0.00,CLR,,0.00,WeatherDisplay:10.37,2013-04-28 17:00:00,
2013-04-28 11:15:00,84.5,74.5,29.92,ESE,121,8.0,12.0,72,0.00,CLR,,0.00,WeatherDisplay:10.37,2013-04-28 17:15:00,
2013-04-28 11:30:00,84.6,74.6,29.92,ESE,122,8.0,12.0,72,0.00,CLR,,0.00,WeatherDisplay:10.37,2013-04-28 17:30:00,
2013-04-28 11:45:00,84.8,74.4,29.92,ESE,118,8.0,12.0,71,0.00,CLR,,0.00,WeatherDisplay:10.37,2013-04-28 17:45:00,
2013-04-28 12:00:00,84.3,74.7,29.92,ESE,116,8.0,10.0,73,0.00,CLR,,0.00,WeatherDisplay:10.37,2013-04-28 18:00:00,
2013-04-28 12:15:00,84.6,74.6,29.91,ESE,114,8.0,10.0,72,0.00,CLR,,0.00,WeatherDisplay:10.37,2013-04-28 18:15:00,
2013-04-28 12:30:00,84.4,74.8,29.90,ESE,108,8.0,10.0,73,0.00,CLR,,0.00,WeatherDisplay:10.37,2013-04-28 18:30:00,
2013-04-28 12:45:00,84.7,75.5,29.90,ESE,110,7.0,10.0,74,0.00,CLR,,0.00,WeatherDisplay:10.37,2013-04-28 18:45:00,
2013-04-28 13:00:00,84.3,75.5,29.89,ESE,109,12.0,14.0,75,0.00,CLR,,0.00,WeatherDisplay:10.37,2013-04-28 19:00:00,
2013-04-28 13:15:00,83.8,74.6,29.89,ESE,115,13.0,14.0,74,0.00,CLR,,0.00,WeatherDisplay:10.37,2013-04-28 19:15:00,
2013-04-28 13:30:00,84.3,74.3,29.88,ESE,116,9.0,14.0,72,0.00,CLR,,0.00,WeatherDisplay:10.37,2013-04-28 19:30:00,
2013-04-28 13:45:00,84.2,75.0,29.88,ESE,109,10.0,13.0,74,0.00,CLR,,0.00,WeatherDisplay:10.37,2013-04-28 19:45:00,
2013-04-28 14:00:00,83.9,74.7,29.87,ESE,114,12.0,13.0,74,0.00,CLR,,0.00,WeatherDisplay:10.37,2013-04-28 20:00:00,
2013-04-28 14:15:00,83.8,75.4,29.87,ESE,112,9.0,14.0,76,0.00,CLR,,0.00,WeatherDisplay:10.37,2013-04-28 20:15:00,
2013-04-28 14:30:00,83.8,75.0,29.86,ESE,116,10.0,13.0,75,0.00,CLR,,0.00,WeatherDisplay:10.37,2013-04-28 20:30:00,
2013-04-28 14:45:00,83.9,75.1,29.86,ESE,110,10.0,13.0,75,0.00,CLR,,0.00,WeatherDisplay:10.37,2013-04-28 20:45:00,
2013-04-28 15:00:00,84.0,75.6,29.85,ESE,107,6.0,14.0,76,0.00,CLR,,0.00,WeatherDisplay:10.37,2013-04-28 21:00:00,
2013-04-28 15:15:00,83.9,75.1,29.85,ESE,110,9.0,13.0,75,0.00,CLR,,0.00,WeatherDisplay:10.37,2013-04-28 21:15:00,
2013-04-28 15:30:00,84.5,75.3,29.85,ESE,107,6.0,12.0,74,0.00,CLR,,0.00,WeatherDisplay:10.37,2013-04-28 21:30:00,
2013-04-28 15:45:00,84.2,75.0,29.84,East,92,8.0,13.0,74,0.00,CLR,,0.00,WeatherDisplay:10.37,2013-04-28 21:45:00,
2013-04-28 16:00:00,83.8,75.0,29.84,ESE,112,9.0,13.0,75,0.00,CLR,,0.00,WeatherDisplay:10.37,2013-04-28 22:00:00,
2013-04-28 16:15:00,83.4,74.2,29.84,ESE,116,10.0,13.0,74,0.00,CLR,,0.00,WeatherDisplay:10.37,2013-04-28 22:15:00,
2013-04-28 16:26:00,83.2,75.6,29.84,ESE,116,8.0,13.0,78,0.00,CLR,,0.00,WeatherDisplay:10.37,2013-04-28 22:26:00,
2013-04-28 16:45:00,83.2,74.8,29.84,ESE,109,6.0,13.0,76,0.00,CLR,,0.00,WeatherDisplay:10.37,2013-04-28 22:45:00,
2013-04-28 17:00:00,82.8,74.8,29.83,ESE,110,9.0,14.0,77,0.00,CLR,,0.00,WeatherDisplay:10.37,2013-04-28 23:00:00,
2013-04-28 17:15:00,82.8,75.2,29.83,ESE,110,6.0,14.0,78,0.00,CLR,,0.00,WeatherDisplay:10.37,2013-04-28 23:15:00,
2013-04-28 17:30:00,82.5,75.3,29.83,East,101,6.0,13.0,79,0.00,CLR,,0.00,WeatherDisplay:10.37,2013-04-28 23:30:00,
2013-04-28 17:45:00,82.1,75.3,29.83,East,101,7.0,13.0,80,0.00,CLR,,0.00,WeatherDisplay:10.37,2013-04-28 23:45:00,
2013-04-28 18:00:00,81.9,75.1,29.83,ESE,112,9.0,13.0,80,0.00,CLR,,0.00,WeatherDisplay:10.37,2013-04-29 00:00:00,
2013-04-28 18:15:00,81.9,75.1,29.83,East,101,6.0,14.0,80,0.00,CLR,,0.00,WeatherDisplay:10.37,2013-04-29 00:15:00,
2013-04-28 18:30:00,81.8,75.4,29.83,East,101,6.0,13.0,81,0.00,CLR,,0.00,WeatherDisplay:10.37,2013-04-29 00:30:00,
2013-04-28 18:45:00,81.9,75.9,29.83,ESE,107,9.0,15.0,82,0.00,CLR,,0.00,WeatherDisplay:10.37,2013-04-29 00:45:00,
2013-04-28 19:00:00,81.8,75.8,29.83,ESE,115,8.0,14.0,82,0.00,CLR,,0.00,WeatherDisplay:10.37,2013-04-29 01:00:00,
2013-04-28 19:15:00,81.8,75.8,29.84,ESE,110,8.0,16.0,82,0.00,CLR,,0.00,WeatherDisplay:10.37,2013-04-29 01:15:00,
2013-04-28 19:30:00,81.9,74.7,29.84,ESE,108,10.0,15.0,79,0.00,CLR,,0.00,WeatherDisplay:10.37,2013-04-29 01:30:00,
2013-04-28 19:45:00,81.9,74.4,29.85,ESE,106,9.0,15.0,78,0.00,CLR,,0.00,WeatherDisplay:10.37,2013-04-29 01:45:00,
2013-04-28 20:00:00,81.8,74.6,29.85,ESE,104,9.0,18.0,79,0.00,CLR,,0.00,WeatherDisplay:10.37,2013-04-29 02:00:00,
2013-04-28 20:15:00,81.8,75.0,29.85,ESE,111,9.0,16.0,80,0.00,CLR,,0.00,WeatherDisplay:10.37,2013-04-29 02:15:00,
2013-04-28 20:30:00,81.9,74.3,29.85,ESE,123,13.0,16.0,78,0.00,CLR,,0.00,WeatherDisplay:10.37,2013-04-29 02:30:00,
2013-04-28 20:45:00,81.9,74.7,29.85,East,98,8.0,18.0,79,0.00,CLR,,0.00,WeatherDisplay:10.37,2013-04-29 02:45:00,
2013-04-28 21:00:00,81.9,74.4,29.85,ESE,110,12.0,18.0,78,0.00,CLR,,0.00,WeatherDisplay:10.37,2013-04-29 03:00:00,
2013-04-28 21:15:00,81.8,75.0,29.85,ESE,111,10.0,18.0,80,0.00,CLR,,0.00,WeatherDisplay:10.37,2013-04-29 03:15:00,
2013-04-28 21:30:00,81.8,75.0,29.86,East,98,15.0,19.0,80,0.00,CLR,,0.00,WeatherDisplay:10.37,2013-04-29 03:30:00,
2013-04-28 21:45:00,81.6,75.2,29.86,East,99,8.0,18.0,81,0.00,CLR,,0.00,WeatherDisplay:10.37,2013-04-29 03:45:00,
2013-04-28 22:00:00,81.6,75.2,29.86,ESE,105,12.0,16.0,81,0.00,CLR,,0.00,WeatherDisplay:10.37,2013-04-29 04:00:00,
2013-04-28 22:15:00,81.6,75.2,29.87,ESE,113,14.0,19.0,81,0.00,CLR,,0.00,WeatherDisplay:10.37,2013-04-29 04:15:00,
2013-04-28 22:30:00,81.6,75.2,29.87,East,100,13.0,20.0,81,0.00,CLR,,0.00,WeatherDisplay:10.37,2013-04-29 04:30:00,
2013-04-28 22:45:00,81.5,75.1,29.87,ESE,114,17.0,21.0,81,0.00,CLR,,0.00,WeatherDisplay:10.37,2013-04-29 04:45:00,
2013-04-28 23:00:00,81.5,75.8,29.86,ESE,108,15.0,21.0,83,0.00,CLR,,0.00,WeatherDisplay:10.37,2013-04-29 05:00:00,
2013-04-28 23:15:00,81.6,76.3,29.85,ESE,116,16.0,23.0,84,0.00,CLR,,0.00,WeatherDisplay:10.37,2013-04-29 05:15:00,
2013-04-28 23:30:00,81.5,75.5,29.85,ESE,110,16.0,24.0,82,0.00,CLR,,0.00,WeatherDisplay:10.37,2013-04-29 05:30:00,
2013-04-28 23:45:00,81.5,75.5,29.85,ESE,116,18.0,21.0,82,0.00,CLR,,0.00,WeatherDisplay:10.37,2013-04-29 05:45:00,